sensor_id;sensor_type;location;lat;lon;timestamp;P1;durP1;ratioP1;P2;durP2;ratioP2
9904;SDS011;4991;43.566;27.820;2023-02-28T00:01:25;0.20;;;0.20;;
9904;SDS011;4991;43.566;27.820;2023-02-28T00:03:51;0.20;;;0.20;;
9904;SDS011;4991;43.566;27.820;2023-02-28T00:06:17;0.13;;;0.13;;
9904;SDS011;4991;43.566;27.820;2023-02-28T00:08:43;0.20;;;0.20;;
9904;SDS011;4991;43.566;27.820;2023-02-28T00:11:10;0.20;;;0.20;;
9904;SDS011;4991;43.566;27.820;2023-02-28T00:13:38;0.20;;;0.20;;
9904;SDS011;4991;43.566;27.820;2023-02-28T00:16:07;0.10;;;0.10;;
9904;SDS011;4991;43.566;27.820;2023-02-28T00:18:35;0.20;;;0.20;;
9904;SDS011;4991;43.566;27.820;2023-02-28T00:21:01;0.20;;;0.20;;
9904;SDS011;4991;43.566;27.820;2023-02-28T00:23:26;0.20;;;0.20;;
9904;SDS011;4991;43.566;27.820;2023-02-28T00:25:53;0.10;;;0.10;;
9904;SDS011;4991;43.566;27.820;2023-02-28T00:28:19;0.20;;;0.20;;
9904;SDS011;4991;43.566;27.820;2023-02-28T00:30:45;0.10;;;0.10;;
9904;SDS011;4991;43.566;27.820;2023-02-28T00:33:10;0.20;;;0.20;;
9904;SDS011;4991;43.566;27.820;2023-02-28T00:35:36;0.20;;;0.20;;
9904;SDS011;4991;43.566;27.820;2023-02-28T00:38:02;0.03;;;0.03;;
9904;SDS011;4991;43.566;27.820;2023-02-28T00:40:28;0.10;;;0.10;;
9904;SDS011;4991;43.566;27.820;2023-02-28T00:42:54;0.20;;;0.20;;
9904;SDS011;4991;43.566;27.820;2023-02-28T00:45:19;0.10;;;0.10;;
9904;SDS011;4991;43.566;27.820;2023-02-28T00:47:45;0.20;;;0.20;;
9904;SDS011;4991;43.566;27.820;2023-02-28T00:50:11;0.10;;;0.10;;
9904;SDS011;4991;43.566;27.820;2023-02-28T00:52:37;0.10;;;0.10;;
9904;SDS011;4991;43.566;27.820;2023-02-28T00:55:03;0.03;;;0.03;;
9904;SDS011;4991;43.566;27.820;2023-02-28T00:57:29;0.20;;;0.20;;
9904;SDS011;4991;43.566;27.820;2023-02-28T00:59:55;0.20;;;0.20;;
9904;SDS011;4991;43.566;27.820;2023-02-28T01:02:21;0.20;;;0.20;;
9904;SDS011;4991;43.566;27.820;2023-02-28T01:04:47;0.40;;;0.40;;
9904;SDS011;4991;43.566;27.820;2023-02-28T01:07:13;0.13;;;0.13;;
9904;SDS011;4991;43.566;27.820;2023-02-28T01:09:39;0.13;;;0.13;;
9904;SDS011;4991;43.566;27.820;2023-02-28T01:12:06;0.20;;;0.20;;
9904;SDS011;4991;43.566;27.820;2023-02-28T01:14:32;0.20;;;0.20;;
9904;SDS011;4991;43.566;27.820;2023-02-28T01:16:59;0.30;;;0.30;;
9904;SDS011;4991;43.566;27.820;2023-02-28T01:19:25;0.20;;;0.20;;
9904;SDS011;4991;43.566;27.820;2023-02-28T01:21:51;0.20;;;0.20;;
9904;SDS011;4991;43.566;27.820;2023-02-28T01:24:16;0.20;;;0.20;;
9904;SDS011;4991;43.566;27.820;2023-02-28T01:26:42;0.17;;;0.17;;
9904;SDS011;4991;43.566;27.820;2023-02-28T01:29:07;0.20;;;0.20;;
9904;SDS011;4991;43.566;27.820;2023-02-28T01:31:33;0.20;;;0.20;;
9904;SDS011;4991;43.566;27.820;2023-02-28T01:33:59;0.20;;;0.20;;
9904;SDS011;4991;43.566;27.820;2023-02-28T01:36:25;0.10;;;0.10;;
9904;SDS011;4991;43.566;27.820;2023-02-28T01:38:51;0.20;;;0.20;;
9904;SDS011;4991;43.566;27.820;2023-02-28T01:41:21;0.27;;;0.27;;
9904;SDS011;4991;43.566;27.820;2023-02-28T01:46:15;0.00;;;0.00;;
9904;SDS011;4991;43.566;27.820;2023-02-28T01:48:42;0.10;;;0.10;;
9904;SDS011;4991;43.566;27.820;2023-02-28T01:51:18;0.10;;;0.10;;
9904;SDS011;4991;43.566;27.820;2023-02-28T01:54:20;0.10;;;0.10;;
9904;SDS011;4991;43.566;27.820;2023-02-28T01:56:51;0.20;;;0.20;;
9904;SDS011;4991;43.566;27.820;2023-02-28T01:59:24;0.20;;;0.20;;
9904;SDS011;4991;43.566;27.820;2023-02-28T02:01:55;0.10;;;0.10;;
9904;SDS011;4991;43.566;27.820;2023-02-28T02:04:21;0.10;;;0.10;;
9904;SDS011;4991;43.566;27.820;2023-02-28T02:06:51;0.10;;;0.10;;
9904;SDS011;4991;43.566;27.820;2023-02-28T02:09:17;0.20;;;0.20;;
9904;SDS011;4991;43.566;27.820;2023-02-28T02:11:43;0.20;;;0.20;;
9904;SDS011;4991;43.566;27.820;2023-02-28T02:22:12;0.20;;;0.20;;
9904;SDS011;4991;43.566;27.820;2023-02-28T02:30:20;0.10;;;0.10;;
9904;SDS011;4991;43.566;27.820;2023-02-28T02:35:54;0.10;;;0.10;;
9904;SDS011;4991;43.566;27.820;2023-02-28T02:40:58;0.20;;;0.20;;
9904;SDS011;4991;43.566;27.820;2023-02-28T02:43:37;0.10;;;0.10;;
9904;SDS011;4991;43.566;27.820;2023-02-28T02:46:10;0.10;;;0.10;;
9904;SDS011;4991;43.566;27.820;2023-02-28T02:48:40;0.10;;;0.10;;
9904;SDS011;4991;43.566;27.820;2023-02-28T02:51:13;0.10;;;0.10;;
9904;SDS011;4991;43.566;27.820;2023-02-28T02:54:15;0.73;;;0.73;;
9904;SDS011;4991;43.566;27.820;2023-02-28T02:56:35;0.20;;;0.20;;
9904;SDS011;4991;43.566;27.820;2023-02-28T02:59:06;0.10;;;0.10;;
9904;SDS011;4991;43.566;27.820;2023-02-28T03:01:35;0.10;;;0.10;;
9904;SDS011;4991;43.566;27.820;2023-02-28T03:04:07;0.10;;;0.10;;
9904;SDS011;4991;43.566;27.820;2023-02-28T03:06:38;0.20;;;0.20;;
9904;SDS011;4991;43.566;27.820;2023-02-28T03:09:04;0.20;;;0.20;;
9904;SDS011;4991;43.566;27.820;2023-02-28T03:11:30;0.10;;;0.10;;
9904;SDS011;4991;43.566;27.820;2023-02-28T03:16:41;0.10;;;0.10;;
9904;SDS011;4991;43.566;27.820;2023-02-28T03:27:48;0.10;;;0.10;;
9904;SDS011;4991;43.566;27.820;2023-02-28T03:33:34;0.10;;;0.10;;
9904;SDS011;4991;43.566;27.820;2023-02-28T03:35:55;0.10;;;0.10;;
9904;SDS011;4991;43.566;27.820;2023-02-28T03:41:11;0.20;;;0.20;;
9904;SDS011;4991;43.566;27.820;2023-02-28T03:43:49;0.17;;;0.17;;
9904;SDS011;4991;43.566;27.820;2023-02-28T03:46:20;0.20;;;0.20;;
9904;SDS011;4991;43.566;27.820;2023-02-28T03:49:03;0.10;;;0.10;;
9904;SDS011;4991;43.566;27.820;2023-02-28T03:51:37;0.10;;;0.10;;
9904;SDS011;4991;43.566;27.820;2023-02-28T03:54:10;0.17;;;0.17;;
9904;SDS011;4991;43.566;27.820;2023-02-28T03:56:40;0.20;;;0.20;;
9904;SDS011;4991;43.566;27.820;2023-02-28T03:59:22;0.17;;;0.17;;
9904;SDS011;4991;43.566;27.820;2023-02-28T04:01:56;0.10;;;0.10;;
9904;SDS011;4991;43.566;27.820;2023-02-28T04:04:23;0.23;;;0.23;;
9904;SDS011;4991;43.566;27.820;2023-02-28T04:06:50;0.20;;;0.20;;
9904;SDS011;4991;43.566;27.820;2023-02-28T04:09:16;0.20;;;0.20;;
9904;SDS011;4991;43.566;27.820;2023-02-28T04:11:43;0.20;;;0.20;;
9904;SDS011;4991;43.566;27.820;2023-02-28T04:14:16;0.20;;;0.20;;
9904;SDS011;4991;43.566;27.820;2023-02-28T04:16:42;0.10;;;0.10;;
9904;SDS011;4991;43.566;27.820;2023-02-28T04:19:08;0.20;;;0.20;;
9904;SDS011;4991;43.566;27.820;2023-02-28T04:21:36;0.10;;;0.10;;
9904;SDS011;4991;43.566;27.820;2023-02-28T04:24:04;0.20;;;0.20;;
9904;SDS011;4991;43.566;27.820;2023-02-28T04:26:31;0.10;;;0.10;;
9904;SDS011;4991;43.566;27.820;2023-02-28T04:28:59;0.20;;;0.20;;
9904;SDS011;4991;43.566;27.820;2023-02-28T04:31:25;0.10;;;0.10;;
9904;SDS011;4991;43.566;27.820;2023-02-28T04:33:50;0.10;;;0.10;;
9904;SDS011;4991;43.566;27.820;2023-02-28T04:36:16;0.20;;;0.20;;
9904;SDS011;4991;43.566;27.820;2023-02-28T04:38:43;0.10;;;0.10;;
9904;SDS011;4991;43.566;27.820;2023-02-28T04:41:10;0.20;;;0.20;;
9904;SDS011;4991;43.566;27.820;2023-02-28T04:43:36;0.10;;;0.10;;
9904;SDS011;4991;43.566;27.820;2023-02-28T04:46:02;0.10;;;0.10;;
9904;SDS011;4991;43.566;27.820;2023-02-28T04:48:29;0.13;;;0.13;;
9904;SDS011;4991;43.566;27.820;2023-02-28T04:51:00;0.10;;;0.10;;
9904;SDS011;4991;43.566;27.820;2023-02-28T04:53:27;0.10;;;0.10;;
9904;SDS011;4991;43.566;27.820;2023-02-28T04:55:54;0.20;;;0.20;;
9904;SDS011;4991;43.566;27.820;2023-02-28T04:58:21;0.13;;;0.13;;
9904;SDS011;4991;43.566;27.820;2023-02-28T05:00:50;0.10;;;0.10;;
9904;SDS011;4991;43.566;27.820;2023-02-28T05:03:19;0.20;;;0.20;;
9904;SDS011;4991;43.566;27.820;2023-02-28T05:05:48;0.10;;;0.10;;
9904;SDS011;4991;43.566;27.820;2023-02-28T05:08:14;0.20;;;0.20;;
9904;SDS011;4991;43.566;27.820;2023-02-28T05:10:39;0.10;;;0.10;;
9904;SDS011;4991;43.566;27.820;2023-02-28T05:13:05;0.30;;;0.30;;
9904;SDS011;4991;43.566;27.820;2023-02-28T05:15:31;0.10;;;0.10;;
9904;SDS011;4991;43.566;27.820;2023-02-28T05:17:56;0.20;;;0.20;;
9904;SDS011;4991;43.566;27.820;2023-02-28T05:20:22;0.10;;;0.10;;
9904;SDS011;4991;43.566;27.820;2023-02-28T05:22:47;0.10;;;0.10;;
9904;SDS011;4991;43.566;27.820;2023-02-28T05:25:18;0.10;;;0.10;;
9904;SDS011;4991;43.566;27.820;2023-02-28T05:27:47;1.03;;;1.03;;
9904;SDS011;4991;43.566;27.820;2023-02-28T05:30:13;0.20;;;0.20;;
9904;SDS011;4991;43.566;27.820;2023-02-28T05:32:39;0.10;;;0.10;;
9904;SDS011;4991;43.566;27.820;2023-02-28T05:35:09;0.10;;;0.10;;
9904;SDS011;4991;43.566;27.820;2023-02-28T05:37:37;0.20;;;0.20;;
9904;SDS011;4991;43.566;27.820;2023-02-28T05:40:06;0.10;;;0.10;;
9904;SDS011;4991;43.566;27.820;2023-02-28T05:42:36;0.10;;;0.10;;
9904;SDS011;4991;43.566;27.820;2023-02-28T05:45:03;0.20;;;0.20;;
9904;SDS011;4991;43.566;27.820;2023-02-28T05:47:29;0.20;;;0.20;;
9904;SDS011;4991;43.566;27.820;2023-02-28T05:49:55;0.10;;;0.10;;
9904;SDS011;4991;43.566;27.820;2023-02-28T05:52:21;0.10;;;0.10;;
9904;SDS011;4991;43.566;27.820;2023-02-28T05:54:46;0.17;;;0.17;;
9904;SDS011;4991;43.566;27.820;2023-02-28T05:57:13;0.83;;;0.83;;
9904;SDS011;4991;43.566;27.820;2023-02-28T05:59:38;0.10;;;0.10;;
9904;SDS011;4991;43.566;27.820;2023-02-28T06:02:14;0.10;;;0.10;;
9904;SDS011;4991;43.566;27.820;2023-02-28T06:04:41;0.00;;;0.00;;
9904;SDS011;4991;43.566;27.820;2023-02-28T06:07:08;0.10;;;0.10;;
9904;SDS011;4991;43.566;27.820;2023-02-28T06:09:33;0.10;;;0.10;;
9904;SDS011;4991;43.566;27.820;2023-02-28T06:12:00;0.20;;;0.20;;
9904;SDS011;4991;43.566;27.820;2023-02-28T06:14:28;0.20;;;0.20;;
9904;SDS011;4991;43.566;27.820;2023-02-28T06:16:56;0.10;;;0.10;;
9904;SDS011;4991;43.566;27.820;2023-02-28T06:19:22;0.10;;;0.10;;
9904;SDS011;4991;43.566;27.820;2023-02-28T06:21:50;0.10;;;0.10;;
9904;SDS011;4991;43.566;27.820;2023-02-28T06:24:18;0.10;;;0.10;;
9904;SDS011;4991;43.566;27.820;2023-02-28T06:26:44;0.10;;;0.10;;
9904;SDS011;4991;43.566;27.820;2023-02-28T06:29:10;10.10;;;3.60;;
9904;SDS011;4991;43.566;27.820;2023-02-28T06:31:36;0.00;;;0.00;;
9904;SDS011;4991;43.566;27.820;2023-02-28T06:34:03;0.10;;;0.10;;
9904;SDS011;4991;43.566;27.820;2023-02-28T06:36:30;0.10;;;0.10;;
9904;SDS011;4991;43.566;27.820;2023-02-28T06:38:56;0.10;;;0.10;;
9904;SDS011;4991;43.566;27.820;2023-02-28T06:41:26;0.10;;;0.10;;
9904;SDS011;4991;43.566;27.820;2023-02-28T06:43:53;0.10;;;0.10;;
9904;SDS011;4991;43.566;27.820;2023-02-28T06:46:19;0.10;;;0.10;;
9904;SDS011;4991;43.566;27.820;2023-02-28T06:48:45;0.00;;;0.00;;
9904;SDS011;4991;43.566;27.820;2023-02-28T06:51:12;0.10;;;0.10;;
9904;SDS011;4991;43.566;27.820;2023-02-28T06:53:40;0.00;;;0.00;;
9904;SDS011;4991;43.566;27.820;2023-02-28T06:56:12;0.00;;;0.00;;
9904;SDS011;4991;43.566;27.820;2023-02-28T06:58:39;0.10;;;0.10;;
9904;SDS011;4991;43.566;27.820;2023-02-28T07:01:05;0.10;;;0.10;;
9904;SDS011;4991;43.566;27.820;2023-02-28T07:03:32;0.17;;;0.17;;
9904;SDS011;4991;43.566;27.820;2023-02-28T07:05:58;0.10;;;0.10;;
9904;SDS011;4991;43.566;27.820;2023-02-28T07:08:24;0.10;;;0.10;;
9904;SDS011;4991;43.566;27.820;2023-02-28T07:10:52;0.10;;;0.10;;
9904;SDS011;4991;43.566;27.820;2023-02-28T07:13:18;0.20;;;0.20;;
9904;SDS011;4991;43.566;27.820;2023-02-28T07:15:44;0.10;;;0.10;;
9904;SDS011;4991;43.566;27.820;2023-02-28T07:18:17;0.10;;;0.10;;
9904;SDS011;4991;43.566;27.820;2023-02-28T07:20:44;0.20;;;0.20;;
9904;SDS011;4991;43.566;27.820;2023-02-28T07:23:10;0.10;;;0.10;;
9904;SDS011;4991;43.566;27.820;2023-02-28T07:25:35;0.10;;;0.10;;
9904;SDS011;4991;43.566;27.820;2023-02-28T07:28:01;0.13;;;0.13;;
9904;SDS011;4991;43.566;27.820;2023-02-28T07:30:27;0.17;;;0.17;;
9904;SDS011;4991;43.566;27.820;2023-02-28T07:32:52;0.10;;;0.10;;
9904;SDS011;4991;43.566;27.820;2023-02-28T07:35:19;0.17;;;0.17;;
9904;SDS011;4991;43.566;27.820;2023-02-28T07:37:45;0.20;;;0.20;;
9904;SDS011;4991;43.566;27.820;2023-02-28T07:40:12;0.10;;;0.10;;
9904;SDS011;4991;43.566;27.820;2023-02-28T07:42:38;0.10;;;0.10;;
9904;SDS011;4991;43.566;27.820;2023-02-28T07:45:05;0.10;;;0.10;;
9904;SDS011;4991;43.566;27.820;2023-02-28T07:47:31;0.00;;;0.00;;
9904;SDS011;4991;43.566;27.820;2023-02-28T07:49:57;0.10;;;0.10;;
9904;SDS011;4991;43.566;27.820;2023-02-28T07:52:23;0.10;;;0.10;;
9904;SDS011;4991;43.566;27.820;2023-02-28T07:54:52;0.03;;;0.03;;
9904;SDS011;4991;43.566;27.820;2023-02-28T07:57:18;0.10;;;0.10;;
9904;SDS011;4991;43.566;27.820;2023-02-28T07:59:44;0.10;;;0.10;;
9904;SDS011;4991;43.566;27.820;2023-02-28T08:02:13;0.10;;;0.10;;
9904;SDS011;4991;43.566;27.820;2023-02-28T08:04:40;0.20;;;0.20;;
9904;SDS011;4991;43.566;27.820;2023-02-28T08:07:05;0.10;;;0.10;;
9904;SDS011;4991;43.566;27.820;2023-02-28T08:09:31;0.30;;;0.30;;
9904;SDS011;4991;43.566;27.820;2023-02-28T08:11:57;0.20;;;0.20;;
9904;SDS011;4991;43.566;27.820;2023-02-28T08:14:23;0.10;;;0.10;;
9904;SDS011;4991;43.566;27.820;2023-02-28T08:16:49;0.10;;;0.10;;
9904;SDS011;4991;43.566;27.820;2023-02-28T08:19:15;0.10;;;0.10;;
9904;SDS011;4991;43.566;27.820;2023-02-28T08:21:40;6.93;;;6.50;;
9904;SDS011;4991;43.566;27.820;2023-02-28T08:24:06;0.13;;;0.13;;
9904;SDS011;4991;43.566;27.820;2023-02-28T08:26:31;0.20;;;0.20;;
9904;SDS011;4991;43.566;27.820;2023-02-28T08:28:57;0.20;;;0.20;;
9904;SDS011;4991;43.566;27.820;2023-02-28T08:31:23;0.17;;;0.17;;
9904;SDS011;4991;43.566;27.820;2023-02-28T08:33:49;0.10;;;0.10;;
9904;SDS011;4991;43.566;27.820;2023-02-28T08:36:17;0.17;;;0.17;;
9904;SDS011;4991;43.566;27.820;2023-02-28T08:38:43;0.10;;;0.10;;
9904;SDS011;4991;43.566;27.820;2023-02-28T08:41:09;0.10;;;0.10;;
9904;SDS011;4991;43.566;27.820;2023-02-28T08:43:36;0.17;;;0.17;;
9904;SDS011;4991;43.566;27.820;2023-02-28T08:46:03;0.10;;;0.10;;
9904;SDS011;4991;43.566;27.820;2023-02-28T08:48:29;0.10;;;0.10;;
9904;SDS011;4991;43.566;27.820;2023-02-28T08:50:57;0.10;;;0.10;;
9904;SDS011;4991;43.566;27.820;2023-02-28T08:53:24;0.00;;;0.00;;
9904;SDS011;4991;43.566;27.820;2023-02-28T08:55:59;0.10;;;0.10;;
9904;SDS011;4991;43.566;27.820;2023-02-28T08:58:26;0.10;;;0.10;;
9904;SDS011;4991;43.566;27.820;2023-02-28T09:00:52;0.10;;;0.10;;
9904;SDS011;4991;43.566;27.820;2023-02-28T09:03:18;0.10;;;0.10;;
9904;SDS011;4991;43.566;27.820;2023-02-28T09:05:54;0.20;;;0.20;;
9904;SDS011;4991;43.566;27.820;2023-02-28T09:08:27;0.17;;;0.17;;
9904;SDS011;4991;43.566;27.820;2023-02-28T09:10:58;0.10;;;0.10;;
9904;SDS011;4991;43.566;27.820;2023-02-28T09:13:24;0.20;;;0.20;;
9904;SDS011;4991;43.566;27.820;2023-02-28T09:15:51;0.13;;;0.13;;
9904;SDS011;4991;43.566;27.820;2023-02-28T09:18:18;0.10;;;0.10;;
9904;SDS011;4991;43.566;27.820;2023-02-28T09:20:44;0.10;;;0.10;;
9904;SDS011;4991;43.566;27.820;2023-02-28T09:23:10;0.10;;;0.10;;
9904;SDS011;4991;43.566;27.820;2023-02-28T09:25:45;0.20;;;0.20;;
9904;SDS011;4991;43.566;27.820;2023-02-28T09:28:19;0.27;;;0.27;;
9904;SDS011;4991;43.566;27.820;2023-02-28T09:30:45;0.20;;;0.20;;
9904;SDS011;4991;43.566;27.820;2023-02-28T09:33:13;0.10;;;0.10;;
9904;SDS011;4991;43.566;27.820;2023-02-28T09:35:39;0.10;;;0.10;;
9904;SDS011;4991;43.566;27.820;2023-02-28T09:38:05;0.10;;;0.10;;
9904;SDS011;4991;43.566;27.820;2023-02-28T09:40:34;0.10;;;0.10;;
9904;SDS011;4991;43.566;27.820;2023-02-28T09:43:09;0.10;;;0.10;;
9904;SDS011;4991;43.566;27.820;2023-02-28T09:45:41;0.00;;;0.00;;
9904;SDS011;4991;43.566;27.820;2023-02-28T09:48:24;0.10;;;0.10;;
9904;SDS011;4991;43.566;27.820;2023-02-28T09:51:03;28.80;;;13.83;;
9904;SDS011;4991;43.566;27.820;2023-02-28T09:53:35;18.17;;;13.00;;
9904;SDS011;4991;43.566;27.820;2023-02-28T09:56:05;19.67;;;13.10;;
9904;SDS011;4991;43.566;27.820;2023-02-28T10:01:53;25.10;;;13.10;;
9904;SDS011;4991;43.566;27.820;2023-02-28T10:06:54;19.17;;;11.00;;
9904;SDS011;4991;43.566;27.820;2023-02-28T10:11:51;20.53;;;10.50;;
9904;SDS011;4991;43.566;27.820;2023-02-28T10:14:24;22.87;;;10.77;;
9904;SDS011;4991;43.566;27.820;2023-02-28T10:17:02;20.37;;;9.77;;
9904;SDS011;4991;43.566;27.820;2023-02-28T10:22:19;25.30;;;11.37;;
9904;SDS011;4991;43.566;27.820;2023-02-28T10:24:49;17.23;;;10.80;;
9904;SDS011;4991;43.566;27.820;2023-02-28T10:29:50;17.27;;;10.73;;
9904;SDS011;4991;43.566;27.820;2023-02-28T10:32:17;24.83;;;11.20;;
9904;SDS011;4991;43.566;27.820;2023-02-28T10:34:44;21.70;;;10.93;;
9904;SDS011;4991;43.566;27.820;2023-02-28T10:37:13;19.10;;;11.47;;
9904;SDS011;4991;43.566;27.820;2023-02-28T10:39:45;17.70;;;11.43;;
9904;SDS011;4991;43.566;27.820;2023-02-28T10:42:22;31.97;;;14.60;;
9904;SDS011;4991;43.566;27.820;2023-02-28T10:45:10;26.80;;;14.50;;
9904;SDS011;4991;43.566;27.820;2023-02-28T10:48:02;21.53;;;12.20;;
9904;SDS011;4991;43.566;27.820;2023-02-28T10:58:47;30.80;;;12.63;;
9904;SDS011;4991;43.566;27.820;2023-02-28T11:01:22;20.57;;;11.63;;
9904;SDS011;4991;43.566;27.820;2023-02-28T11:07:21;20.63;;;12.47;;
9904;SDS011;4991;43.566;27.820;2023-02-28T11:09:57;31.33;;;13.77;;
9904;SDS011;4991;43.566;27.820;2023-02-28T11:12:25;20.70;;;13.30;;
9904;SDS011;4991;43.566;27.820;2023-02-28T11:15:03;24.70;;;12.90;;
9904;SDS011;4991;43.566;27.820;2023-02-28T11:17:31;17.03;;;12.27;;
9904;SDS011;4991;43.566;27.820;2023-02-28T11:19:59;44.73;;;14.10;;
9904;SDS011;4991;43.566;27.820;2023-02-28T11:22:33;16.67;;;12.33;;
9904;SDS011;4991;43.566;27.820;2023-02-28T11:25:07;16.20;;;12.13;;
9904;SDS011;4991;43.566;27.820;2023-02-28T11:27:51;15.20;;;10.47;;
9904;SDS011;4991;43.566;27.820;2023-02-28T11:30:30;17.27;;;12.43;;
9904;SDS011;4991;43.566;27.820;2023-02-28T11:32:56;18.77;;;12.17;;
9904;SDS011;4991;43.566;27.820;2023-02-28T11:35:28;15.60;;;11.93;;
9904;SDS011;4991;43.566;27.820;2023-02-28T11:37:59;23.27;;;13.20;;
9904;SDS011;4991;43.566;27.820;2023-02-28T11:40:35;22.00;;;12.77;;
9904;SDS011;4991;43.566;27.820;2023-02-28T11:45:55;21.93;;;13.83;;
9904;SDS011;4991;43.566;27.820;2023-02-28T11:52:02;21.33;;;11.40;;
9904;SDS011;4991;43.566;27.820;2023-02-28T11:57:35;16.30;;;9.53;;
9904;SDS011;4991;43.566;27.820;2023-02-28T12:02:43;24.60;;;12.67;;
9904;SDS011;4991;43.566;27.820;2023-02-28T12:13:21;19.37;;;11.73;;
9904;SDS011;4991;43.566;27.820;2023-02-28T12:24:27;20.67;;;11.40;;
9904;SDS011;4991;43.566;27.820;2023-02-28T12:27:02;19.03;;;11.50;;
9904;SDS011;4991;43.566;27.820;2023-02-28T12:29:34;22.33;;;11.63;;
9904;SDS011;4991;43.566;27.820;2023-02-28T12:32:27;19.00;;;12.20;;
9904;SDS011;4991;43.566;27.820;2023-02-28T12:35:11;19.37;;;11.23;;
9904;SDS011;4991;43.566;27.820;2023-02-28T12:40:28;17.87;;;11.27;;
9904;SDS011;4991;43.566;27.820;2023-02-28T12:43:07;25.80;;;11.20;;
9904;SDS011;4991;43.566;27.820;2023-02-28T12:51:13;19.00;;;11.07;;
9904;SDS011;4991;43.566;27.820;2023-02-28T12:59:50;19.67;;;13.20;;
9904;SDS011;4991;43.566;27.820;2023-02-28T13:11:28;27.07;;;14.17;;
9904;SDS011;4991;43.566;27.820;2023-02-28T13:13:58;26.97;;;14.30;;
9904;SDS011;4991;43.566;27.820;2023-02-28T13:16:26;25.37;;;14.70;;
9904;SDS011;4991;43.566;27.820;2023-02-28T13:18:52;22.63;;;14.67;;
9904;SDS011;4991;43.566;27.820;2023-02-28T13:21:41;23.13;;;14.43;;
9904;SDS011;4991;43.566;27.820;2023-02-28T13:24:10;23.57;;;14.20;;
9904;SDS011;4991;43.566;27.820;2023-02-28T13:34:33;27.67;;;16.30;;
9904;SDS011;4991;43.566;27.820;2023-02-28T13:47:28;21.60;;;14.13;;
9904;SDS011;4991;43.566;27.820;2023-02-28T13:55:19;26.90;;;16.43;;
9904;SDS011;4991;43.566;27.820;2023-02-28T13:58:18;30.30;;;16.77;;
9904;SDS011;4991;43.566;27.820;2023-02-28T14:01:15;19.13;;;14.77;;
9904;SDS011;4991;43.566;27.820;2023-02-28T14:06:50;19.90;;;15.00;;
9904;SDS011;4991;43.566;27.820;2023-02-28T14:09:25;26.33;;;17.43;;
9904;SDS011;4991;43.566;27.820;2023-02-28T14:11:55;25.30;;;16.70;;
9904;SDS011;4991;43.566;27.820;2023-02-28T14:17:00;27.20;;;17.83;;
9904;SDS011;4991;43.566;27.820;2023-02-28T14:19:29;30.27;;;19.00;;
9904;SDS011;4991;43.566;27.820;2023-02-28T14:27:48;26.63;;;17.67;;
9904;SDS011;4991;43.566;27.820;2023-02-28T14:35:39;25.00;;;15.80;;
9904;SDS011;4991;43.566;27.820;2023-02-28T14:38:13;25.90;;;17.93;;
9904;SDS011;4991;43.566;27.820;2023-02-28T14:40:46;34.93;;;20.70;;
9904;SDS011;4991;43.566;27.820;2023-02-28T14:43:24;27.13;;;18.97;;
9904;SDS011;4991;43.566;27.820;2023-02-28T14:45:54;32.87;;;21.93;;
9904;SDS011;4991;43.566;27.820;2023-02-28T14:48:22;42.20;;;22.87;;
9904;SDS011;4991;43.566;27.820;2023-02-28T14:50:51;31.50;;;21.57;;
9904;SDS011;4991;43.566;27.820;2023-02-28T14:53:25;28.63;;;19.53;;
9904;SDS011;4991;43.566;27.820;2023-02-28T14:55:53;33.50;;;22.63;;
9904;SDS011;4991;43.566;27.820;2023-02-28T14:58:24;26.60;;;19.47;;
9904;SDS011;4991;43.566;27.820;2023-02-28T15:00:53;24.87;;;16.93;;
9904;SDS011;4991;43.566;27.820;2023-02-28T15:03:21;36.40;;;18.83;;
9904;SDS011;4991;43.566;27.820;2023-02-28T15:05:54;26.73;;;16.20;;
9904;SDS011;4991;43.566;27.820;2023-02-28T15:08:22;27.17;;;17.80;;
9904;SDS011;4991;43.566;27.820;2023-02-28T15:10:57;29.07;;;17.43;;
9904;SDS011;4991;43.566;27.820;2023-02-28T15:16:32;27.90;;;20.17;;
9904;SDS011;4991;43.566;27.820;2023-02-28T15:19:02;31.27;;;19.20;;
9904;SDS011;4991;43.566;27.820;2023-02-28T15:21:45;26.67;;;19.77;;
9904;SDS011;4991;43.566;27.820;2023-02-28T15:26:59;29.07;;;17.70;;
9904;SDS011;4991;43.566;27.820;2023-02-28T15:29:29;24.40;;;17.17;;
9904;SDS011;4991;43.566;27.820;2023-02-28T15:32:03;26.30;;;17.77;;
9904;SDS011;4991;43.566;27.820;2023-02-28T15:34:40;26.90;;;16.60;;
9904;SDS011;4991;43.566;27.820;2023-02-28T15:39:54;31.60;;;18.60;;
9904;SDS011;4991;43.566;27.820;2023-02-28T15:42:22;30.33;;;19.07;;
9904;SDS011;4991;43.566;27.820;2023-02-28T15:44:52;27.87;;;16.80;;
9904;SDS011;4991;43.566;27.820;2023-02-28T15:47:25;22.73;;;16.53;;
9904;SDS011;4991;43.566;27.820;2023-02-28T15:50:03;30.03;;;16.13;;
9904;SDS011;4991;43.566;27.820;2023-02-28T15:52:45;31.33;;;20.47;;
9904;SDS011;4991;43.566;27.820;2023-02-28T15:55:12;26.63;;;16.77;;
9904;SDS011;4991;43.566;27.820;2023-02-28T15:57:55;34.63;;;18.17;;
9904;SDS011;4991;43.566;27.820;2023-02-28T16:00:26;36.07;;;18.30;;
9904;SDS011;4991;43.566;27.820;2023-02-28T16:02:58;29.17;;;19.63;;
9904;SDS011;4991;43.566;27.820;2023-02-28T16:05:25;33.50;;;21.00;;
9904;SDS011;4991;43.566;27.820;2023-02-28T16:08:00;30.00;;;19.70;;
9904;SDS011;4991;43.566;27.820;2023-02-28T16:10:36;34.13;;;20.63;;
9904;SDS011;4991;43.566;27.820;2023-02-28T16:13:02;31.10;;;20.53;;
9904;SDS011;4991;43.566;27.820;2023-02-28T16:15:29;27.17;;;19.53;;
9904;SDS011;4991;43.566;27.820;2023-02-28T16:18:00;30.00;;;20.93;;
9904;SDS011;4991;43.566;27.820;2023-02-28T16:20:29;29.23;;;22.27;;
9904;SDS011;4991;43.566;27.820;2023-02-28T16:22:56;28.20;;;17.97;;
9904;SDS011;4991;43.566;27.820;2023-02-28T16:25:29;27.23;;;18.77;;
9904;SDS011;4991;43.566;27.820;2023-02-28T16:28:00;28.33;;;17.87;;
9904;SDS011;4991;43.566;27.820;2023-02-28T16:30:27;24.60;;;17.03;;
9904;SDS011;4991;43.566;27.820;2023-02-28T16:32:57;31.70;;;19.10;;
9904;SDS011;4991;43.566;27.820;2023-02-28T16:35:24;25.17;;;18.03;;
9904;SDS011;4991;43.566;27.820;2023-02-28T16:37:53;31.67;;;18.73;;
9904;SDS011;4991;43.566;27.820;2023-02-28T16:40:20;28.37;;;17.97;;
9904;SDS011;4991;43.566;27.820;2023-02-28T16:42:51;29.83;;;18.33;;
9904;SDS011;4991;43.566;27.820;2023-02-28T16:45:23;33.87;;;18.10;;
9904;SDS011;4991;43.566;27.820;2023-02-28T16:47:53;28.63;;;18.67;;
9904;SDS011;4991;43.566;27.820;2023-02-28T16:50:20;33.67;;;19.27;;
9904;SDS011;4991;43.566;27.820;2023-02-28T16:52:46;28.80;;;17.70;;
9904;SDS011;4991;43.566;27.820;2023-02-28T16:55:12;25.77;;;17.20;;
9904;SDS011;4991;43.566;27.820;2023-02-28T16:57:38;27.87;;;17.33;;
9904;SDS011;4991;43.566;27.820;2023-02-28T17:00:05;28.00;;;18.67;;
9904;SDS011;4991;43.566;27.820;2023-02-28T17:02:33;29.33;;;18.23;;
9904;SDS011;4991;43.566;27.820;2023-02-28T17:04:59;28.30;;;17.40;;
9904;SDS011;4991;43.566;27.820;2023-02-28T17:07:24;29.73;;;16.87;;
9904;SDS011;4991;43.566;27.820;2023-02-28T17:09:50;25.90;;;17.60;;
9904;SDS011;4991;43.566;27.820;2023-02-28T17:12:16;29.77;;;19.23;;
9904;SDS011;4991;43.566;27.820;2023-02-28T17:14:41;34.00;;;20.60;;
9904;SDS011;4991;43.566;27.820;2023-02-28T17:17:07;30.27;;;20.20;;
9904;SDS011;4991;43.566;27.820;2023-02-28T17:19:35;30.63;;;19.67;;
9904;SDS011;4991;43.566;27.820;2023-02-28T17:22:01;29.00;;;20.33;;
9904;SDS011;4991;43.566;27.820;2023-02-28T17:24:28;29.63;;;21.27;;
9904;SDS011;4991;43.566;27.820;2023-02-28T17:26:54;38.87;;;21.33;;
9904;SDS011;4991;43.566;27.820;2023-02-28T17:29:20;35.07;;;20.80;;
9904;SDS011;4991;43.566;27.820;2023-02-28T17:31:46;25.30;;;18.03;;
9904;SDS011;4991;43.566;27.820;2023-02-28T17:34:13;31.17;;;19.20;;
9904;SDS011;4991;43.566;27.820;2023-02-28T17:36:45;29.97;;;18.30;;
9904;SDS011;4991;43.566;27.820;2023-02-28T17:39:12;25.40;;;16.87;;
9904;SDS011;4991;43.566;27.820;2023-02-28T17:41:52;26.10;;;17.80;;
9904;SDS011;4991;43.566;27.820;2023-02-28T17:44:19;27.13;;;17.73;;
9904;SDS011;4991;43.566;27.820;2023-02-28T17:46:47;27.03;;;17.13;;
9904;SDS011;4991;43.566;27.820;2023-02-28T17:49:14;24.60;;;16.13;;